createdAt,value
2023-03-22T00:00:25.620Z,93.65
2023-03-22T00:01:25.607Z,93.65
2023-03-22T00:02:25.677Z,93.65
2023-03-22T00:03:25.624Z,93.65
2023-03-22T00:04:25.580Z,93.65
2023-03-22T00:05:25.560Z,93.76
2023-03-22T00:06:25.578Z,93.76
2023-03-22T00:07:25.545Z,93.76
2023-03-22T00:08:25.527Z,93.76
2023-03-22T00:09:25.519Z,93.80
2023-03-22T00:10:25.512Z,93.76
2023-03-22T00:11:25.499Z,93.80
2023-03-22T00:12:25.487Z,93.90
2023-03-22T00:13:25.495Z,93.80
2023-03-22T00:14:25.461Z,93.90
2023-03-22T00:15:25.445Z,93.90
2023-03-22T00:16:25.548Z,93.76
2023-03-22T00:17:25.427Z,93.80
2023-03-22T00:18:25.411Z,93.80
2023-03-22T00:19:25.400Z,93.80
2023-03-22T00:20:25.395Z,93.80
2023-03-22T00:21:25.374Z,93.80
2023-03-22T00:22:25.372Z,93.80
2023-03-22T00:23:25.359Z,93.80
2023-03-22T00:24:25.342Z,93.90
2023-03-22T00:25:25.331Z,93.90
2023-03-22T00:26:25.320Z,94.00
2023-03-22T00:27:25.308Z,94.00
2023-03-22T00:28:25.299Z,94.00
2023-03-22T00:29:25.315Z,94.00
2023-03-22T00:30:25.274Z,94.00
2023-03-22T00:31:25.282Z,94.11
2023-03-22T00:32:25.256Z,94.11
2023-03-22T00:33:25.238Z,94.11
2023-03-22T00:34:25.235Z,94.11
2023-03-22T00:35:25.292Z,94.11
2023-03-22T00:36:25.203Z,94.11
2023-03-22T00:37:25.207Z,94.21
2023-03-22T00:38:39.550Z,94.21
2023-03-22T00:39:25.172Z,94.21
2023-03-22T00:40:25.164Z,94.21
2023-03-22T00:41:25.149Z,94.36
2023-03-22T00:42:25.139Z,94.36
2023-03-22T00:43:25.127Z,94.36
2023-03-22T00:44:25.119Z,94.36
2023-03-22T00:45:25.129Z,94.46
2023-03-22T00:46:25.176Z,94.46
2023-03-22T00:47:25.098Z,94.46
2023-03-22T00:48:25.134Z,94.46
2023-03-22T00:49:25.056Z,94.46
2023-03-22T00:50:25.045Z,94.46
2023-03-22T00:51:25.037Z,94.46
2023-03-22T00:52:25.022Z,94.41
2023-03-22T00:53:25.014Z,94.41
2023-03-22T00:54:24.997Z,94.36
2023-03-22T00:55:24.989Z,94.36
2023-03-22T00:56:24.984Z,94.36
2023-03-22T00:57:24.972Z,94.36
2023-03-22T00:58:24.961Z,94.36
2023-03-22T00:59:24.944Z,94.36
2023-03-22T01:00:24.931Z,94.36
2023-03-22T01:01:25.023Z,94.36
2023-03-22T01:02:24.923Z,94.46
2023-03-22T01:03:24.947Z,94.46
2023-03-22T01:04:24.896Z,94.46
2023-03-22T01:05:24.874Z,94.46
2023-03-22T01:06:24.902Z,94.46
2023-03-22T01:07:24.858Z,94.46
2023-03-22T01:08:24.838Z,94.46
2023-03-22T01:09:24.828Z,94.46
2023-03-22T01:10:24.817Z,94.46
2023-03-22T01:11:24.806Z,94.46
2023-03-22T01:12:24.799Z,94.46
2023-03-22T01:13:24.786Z,94.46
2023-03-22T01:14:24.768Z,94.46
2023-03-22T01:15:24.764Z,94.46
2023-03-22T01:16:24.830Z,94.46
2023-03-22T01:17:24.775Z,94.46
2023-03-22T01:18:24.729Z,94.46
2023-03-22T01:19:24.715Z,94.36
2023-03-22T01:20:24.699Z,94.36
2023-03-22T01:21:24.695Z,94.36
2023-03-22T01:22:24.680Z,94.36
2023-03-22T01:23:24.666Z,94.36
2023-03-22T01:24:24.654Z,94.36
2023-03-22T01:25:24.648Z,94.36
2023-03-22T01:26:24.646Z,94.36
2023-03-22T01:27:24.619Z,94.25
2023-03-22T01:28:26.958Z,94.25
2023-03-22T01:29:24.603Z,94.25
2023-03-22T01:30:24.590Z,94.15
2023-03-22T01:31:24.604Z,94.15
2023-03-22T01:32:24.564Z,94.15
2023-03-22T01:33:24.580Z,94.15
2023-03-22T01:34:24.545Z,94.15
2023-03-22T01:35:24.556Z,94.15
2023-03-22T01:36:24.526Z,94.15
2023-03-22T01:37:24.506Z,94.15
2023-03-22T01:38:24.500Z,94.15
2023-03-22T01:39:24.487Z,94.25
2023-03-22T01:40:24.472Z,94.15
2023-03-22T01:41:24.467Z,94.15
2023-03-22T01:42:24.457Z,94.15
2023-03-22T01:43:24.439Z,94.15
2023-03-22T01:44:24.431Z,94.05
2023-03-22T01:45:24.416Z,94.15
2023-03-22T01:46:24.445Z,94.15
2023-03-22T01:47:24.395Z,94.19
2023-03-22T01:48:24.487Z,94.29
2023-03-22T01:49:24.456Z,94.29
2023-03-22T01:50:24.371Z,94.29
2023-03-22T01:51:24.348Z,94.40
2023-03-22T01:52:24.345Z,94.40
2023-03-22T01:53:24.329Z,94.40
2023-03-22T01:54:24.316Z,94.40
2023-03-22T01:55:24.305Z,94.29
2023-03-22T01:56:24.294Z,94.29
2023-03-22T01:57:24.283Z,94.29
2023-03-22T01:58:24.274Z,94.29
2023-03-22T01:59:24.268Z,94.29
2023-03-22T02:00:24.250Z,94.29
2023-03-22T02:01:24.298Z,94.29
2023-03-22T02:02:24.247Z,94.29
2023-03-22T02:03:24.222Z,94.29
2023-03-22T02:04:24.202Z,94.29
2023-03-22T02:05:24.218Z,94.29
2023-03-22T02:06:24.186Z,94.29
2023-03-22T02:07:24.168Z,94.29
2023-03-22T02:08:24.157Z,94.29
2023-03-22T02:09:24.145Z,94.19
2023-03-22T02:10:24.135Z,94.09
2023-03-22T02:11:24.123Z,94.09
2023-03-22T02:12:24.112Z,94.19
2023-03-22T02:13:24.104Z,94.09
2023-03-22T02:14:25.712Z,94.19
2023-03-22T02:15:24.087Z,94.09
2023-03-22T02:16:24.073Z,94.09
2023-03-22T02:17:24.055Z,94.09
2023-03-22T02:18:24.047Z,94.19
2023-03-22T02:19:24.049Z,94.19
2023-03-22T02:20:24.029Z,94.09
2023-03-22T02:21:24.034Z,93.99
2023-03-22T02:22:24.102Z,93.89
2023-03-22T02:23:23.996Z,93.89
2023-03-22T02:24:23.976Z,93.89
2023-03-22T02:25:23.964Z,93.89
2023-03-22T02:26:23.965Z,93.78
2023-03-22T02:27:23.947Z,93.78
2023-03-22T02:28:23.931Z,93.78
2023-03-22T02:29:23.927Z,93.68
2023-03-22T02:30:23.908Z,93.78
2023-03-22T02:31:23.935Z,93.78
2023-03-22T02:32:23.890Z,93.68
2023-03-22T02:33:23.872Z,93.68
2023-03-22T02:34:23.866Z,93.58
2023-03-22T02:35:23.893Z,93.58
2023-03-22T02:36:23.840Z,93.58
2023-03-22T02:37:23.859Z,93.62
2023-03-22T02:38:23.826Z,93.62
2023-03-22T02:39:23.804Z,93.62
2023-03-22T02:40:23.796Z,93.62
2023-03-22T02:41:23.784Z,93.62
2023-03-22T02:42:23.774Z,93.62
2023-03-22T02:43:23.767Z,93.62
2023-03-22T02:44:23.750Z,93.62
2023-03-22T02:45:23.747Z,93.62
2023-03-22T02:46:23.776Z,93.62
2023-03-22T02:47:23.715Z,93.62
2023-03-22T02:48:23.734Z,93.62
2023-03-22T02:49:23.690Z,93.62
2023-03-22T02:50:23.680Z,93.62
2023-03-22T02:51:23.670Z,93.62
2023-03-22T02:52:23.658Z,93.62
2023-03-22T02:53:23.681Z,93.52
2023-03-22T02:54:23.641Z,93.52
2023-03-22T02:55:23.639Z,93.52
2023-03-22T02:56:23.621Z,93.52
2023-03-22T02:57:23.610Z,93.42
2023-03-22T02:58:23.590Z,93.42
2023-03-22T02:59:23.586Z,93.42
2023-03-22T03:00:23.568Z,93.42
2023-03-22T03:01:23.604Z,93.32
2023-03-22T03:02:23.559Z,93.32
2023-03-22T03:03:23.537Z,93.32
2023-03-22T03:04:23.524Z,93.36
2023-03-22T03:05:23.512Z,93.36
2023-03-22T03:06:23.499Z,93.26
2023-03-22T03:07:23.492Z,93.26
2023-03-22T03:08:23.486Z,93.26
2023-03-22T03:09:23.493Z,93.26
2023-03-22T03:10:23.455Z,93.26
2023-03-22T03:11:23.443Z,93.26
2023-03-22T03:12:23.436Z,93.26
2023-03-22T03:13:23.429Z,93.26
2023-03-22T03:14:23.417Z,93.15
2023-03-22T03:15:23.405Z,93.15
2023-03-22T03:16:23.408Z,93.15
2023-03-22T03:17:23.374Z,93.15
2023-03-22T03:18:23.365Z,93.15
2023-03-22T03:19:23.357Z,93.15
2023-03-22T03:20:23.341Z,93.15
2023-03-22T03:21:23.340Z,93.15
2023-03-22T03:22:23.331Z,93.15
2023-03-22T03:23:23.310Z,93.15
2023-03-22T03:24:23.312Z,93.26
2023-03-22T03:25:23.312Z,93.26
2023-03-22T03:26:23.281Z,93.26
2023-03-22T03:27:23.266Z,93.26
2023-03-22T03:28:23.256Z,93.26
2023-03-22T03:29:23.241Z,93.26
2023-03-22T03:30:23.238Z,93.30
2023-03-22T03:31:23.245Z,93.30
2023-03-22T03:32:23.213Z,93.30
2023-03-22T03:33:23.210Z,93.30
2023-03-22T03:34:23.217Z,93.30
2023-03-22T03:35:23.271Z,93.30
2023-03-22T03:36:23.172Z,93.40
2023-03-22T03:37:23.156Z,93.40
2023-03-22T03:38:23.140Z,93.20
2023-03-22T03:39:23.132Z,93.20
2023-03-22T03:40:23.126Z,93.20
2023-03-22T03:41:23.128Z,93.20
2023-03-22T03:42:23.146Z,93.30
2023-03-22T03:43:23.101Z,93.30
2023-03-22T03:44:23.076Z,93.10
2023-03-22T03:45:23.065Z,93.10
2023-03-22T03:46:23.053Z,93.10
2023-03-22T03:47:23.041Z,93.10
2023-03-22T03:48:23.182Z,92.99
2023-03-22T03:49:23.021Z,93.10
2023-03-22T03:50:23.013Z,92.99
2023-03-22T03:51:23.000Z,92.99
2023-03-22T03:52:22.982Z,92.89
2023-03-22T03:53:22.974Z,92.89
2023-03-22T03:54:22.961Z,92.89
2023-03-22T03:55:22.988Z,92.89
2023-03-22T03:56:22.953Z,92.89
2023-03-22T03:57:22.953Z,92.79
2023-03-22T03:58:22.921Z,92.79
2023-03-22T03:59:22.909Z,92.79
2023-03-22T04:00:22.897Z,92.79
2023-03-22T04:01:22.890Z,92.79
2023-03-22T04:02:22.963Z,92.79
2023-03-22T04:03:22.865Z,92.79
2023-03-22T04:04:22.901Z,92.79
2023-03-22T04:05:22.837Z,92.79
2023-03-22T04:06:22.830Z,92.69
2023-03-22T04:07:22.812Z,92.69
2023-03-22T04:08:22.804Z,92.69
2023-03-22T04:09:22.795Z,92.69
2023-03-22T04:10:22.779Z,92.59
2023-03-22T04:11:22.772Z,92.59
2023-03-22T04:12:22.757Z,92.59
2023-03-22T04:13:22.775Z,92.59
2023-03-22T04:14:22.734Z,92.48
2023-03-22T04:15:22.736Z,92.38
2023-03-22T04:16:22.722Z,92.38
2023-03-22T04:17:22.710Z,92.38
2023-03-22T04:18:22.699Z,92.38
2023-03-22T04:19:22.680Z,92.38
2023-03-22T04:20:22.673Z,92.27
2023-03-22T04:21:22.662Z,92.18
2023-03-22T04:22:22.646Z,92.18
2023-03-22T04:23:22.648Z,92.18
2023-03-22T04:24:22.622Z,92.18
2023-03-22T04:25:22.649Z,92.18
2023-03-22T04:26:23.718Z,92.18
2023-03-22T04:27:22.617Z,92.18
2023-03-22T04:28:22.578Z,92.18
2023-03-22T04:29:22.595Z,92.07
2023-03-22T04:30:22.562Z,92.07
2023-03-22T04:31:22.652Z,91.97
2023-03-22T04:32:22.536Z,91.97
2023-03-22T04:33:22.526Z,91.97
2023-03-22T04:34:22.508Z,91.87
2023-03-22T04:35:22.526Z,91.87
2023-03-22T04:36:22.495Z,91.77
2023-03-22T04:37:22.483Z,91.77
2023-03-22T04:38:22.461Z,91.66
2023-03-22T04:39:22.462Z,91.66
2023-03-22T04:40:22.448Z,91.66
2023-03-22T04:41:22.434Z,91.66
2023-03-22T04:42:22.429Z,91.77
2023-03-22T04:43:22.407Z,91.66
2023-03-22T04:44:22.398Z,91.66
2023-03-22T04:45:22.417Z,91.66
2023-03-22T04:46:22.449Z,91.56
2023-03-22T04:47:22.367Z,91.56
2023-03-22T04:48:22.487Z,91.46
2023-03-22T04:49:22.341Z,91.35
2023-03-22T04:50:22.327Z,91.35
2023-03-22T04:51:22.320Z,91.35
2023-03-22T04:52:22.306Z,91.25
2023-03-22T04:53:22.304Z,91.25
2023-03-22T04:54:22.282Z,91.25
2023-03-22T04:55:22.274Z,91.25
2023-03-22T04:56:22.259Z,91.15
2023-03-22T04:57:24.248Z,91.05
2023-03-22T04:58:22.238Z,91.05
2023-03-22T04:59:22.242Z,91.05
2023-03-22T05:00:22.217Z,91.05
2023-03-22T05:01:22.241Z,91.05
2023-03-22T05:02:22.217Z,91.05
2023-03-22T05:03:22.189Z,91.05
2023-03-22T05:04:22.179Z,91.15
2023-03-22T05:05:22.158Z,90.94
2023-03-22T05:06:22.148Z,90.94
2023-03-22T05:07:22.136Z,90.94
2023-03-22T05:08:22.123Z,90.94
2023-03-22T05:09:23.530Z,90.94
2023-03-22T05:10:22.108Z,90.84
2023-03-22T05:11:22.093Z,90.74
2023-03-22T05:12:22.098Z,90.84
2023-03-22T05:13:22.076Z,90.84
2023-03-22T05:14:22.128Z,90.84
2023-03-22T05:15:22.061Z,90.84
2023-03-22T05:16:22.093Z,90.84
2023-03-22T05:17:22.086Z,90.94
2023-03-22T05:18:22.021Z,90.74
2023-03-22T05:19:22.004Z,90.74
2023-03-22T05:20:21.996Z,90.64
2023-03-22T05:21:22.012Z,90.64
2023-03-22T05:22:23.968Z,90.64
2023-03-22T05:23:21.961Z,90.53
2023-03-22T05:24:21.948Z,90.53
2023-03-22T05:25:21.945Z,90.53
2023-03-22T05:26:21.923Z,90.53
2023-03-22T05:27:21.914Z,90.49
2023-03-22T05:28:21.900Z,90.49
2023-03-22T05:29:21.887Z,90.49
2023-03-22T05:30:23.879Z,90.49
2023-03-22T05:31:21.960Z,90.49
2023-03-22T05:32:21.922Z,90.49
2023-03-22T05:33:22.038Z,90.39
2023-03-22T05:34:21.900Z,90.39
2023-03-22T05:35:21.851Z,90.39
2023-03-22T05:36:21.812Z,90.39
2023-03-22T05:37:21.802Z,90.39
2023-03-22T05:38:21.797Z,90.39
2023-03-22T05:39:21.784Z,90.43
2023-03-22T05:40:21.768Z,90.43
2023-03-22T05:41:21.771Z,90.53
2023-03-22T05:42:21.754Z,90.49
2023-03-22T05:43:21.737Z,90.49
2023-03-22T05:44:21.725Z,90.60
2023-03-22T05:45:21.714Z,90.60
2023-03-22T05:46:21.747Z,90.39
2023-03-22T05:47:21.695Z,90.39
2023-03-22T05:48:21.714Z,90.19
2023-03-22T05:49:21.732Z,90.13
2023-03-22T05:50:21.664Z,90.13
2023-03-22T05:51:21.650Z,90.02
2023-03-22T05:52:21.648Z,90.13
2023-03-22T05:53:21.633Z,90.02
2023-03-22T05:54:21.612Z,90.02
2023-03-22T05:55:21.606Z,90.02
2023-03-22T05:56:21.589Z,90.02
2023-03-22T05:57:21.584Z,90.02
2023-03-22T05:58:21.576Z,90.13
2023-03-22T05:59:21.556Z,90.08
2023-03-22T06:00:21.553Z,90.08
2023-03-22T06:01:21.598Z,90.08
2023-03-22T06:02:21.626Z,90.08
2023-03-22T06:03:21.599Z,90.08
2023-03-22T06:04:21.506Z,89.98
2023-03-22T06:05:21.532Z,89.78
2023-03-22T06:06:21.479Z,89.78
2023-03-22T06:07:21.473Z,89.78
2023-03-22T06:08:21.456Z,89.88
2023-03-22T06:09:21.451Z,89.88
2023-03-22T06:10:21.433Z,89.88
2023-03-22T06:11:21.428Z,89.78
2023-03-22T06:12:21.420Z,89.72
2023-03-22T06:13:21.492Z,89.72
2023-03-22T06:14:21.398Z,89.72
2023-03-22T06:15:21.395Z,89.92
2023-03-22T06:16:21.409Z,89.82
2023-03-22T06:17:21.362Z,89.92
2023-03-22T06:18:21.344Z,89.88
2023-03-22T06:19:21.341Z,89.98
2023-03-22T06:20:21.336Z,89.98
2023-03-22T06:21:21.340Z,89.88
2023-03-22T06:22:21.313Z,89.88
2023-03-22T06:23:21.292Z,89.78
2023-03-22T06:24:21.322Z,89.67
2023-03-22T06:25:21.267Z,89.57
2023-03-22T06:26:21.256Z,89.57
2023-03-22T06:27:21.244Z,89.47
2023-03-22T06:28:21.274Z,89.27
2023-03-22T06:29:21.228Z,89.27
2023-03-22T06:30:21.219Z,89.37
2023-03-22T06:31:21.269Z,89.22
2023-03-22T06:32:21.182Z,89.12
2023-03-22T06:33:21.173Z,88.81
2023-03-22T06:34:21.158Z,88.86
2023-03-22T06:35:21.228Z,88.81
2023-03-22T06:36:21.163Z,88.92
2023-03-22T06:37:21.152Z,88.92
2023-03-22T06:38:21.126Z,88.65
2023-03-22T06:39:21.103Z,88.65
2023-03-22T06:40:21.098Z,88.75
2023-03-22T06:41:21.078Z,88.65
2023-03-22T06:42:21.069Z,88.71
2023-03-22T06:43:21.067Z,88.81
2023-03-22T06:44:21.045Z,88.71
2023-03-22T06:45:21.068Z,88.81
2023-03-22T06:46:21.146Z,88.61
2023-03-22T06:47:21.021Z,88.61
2023-03-22T06:48:21.020Z,88.51
2023-03-22T06:49:20.990Z,88.40
2023-03-22T06:50:20.989Z,88.40
2023-03-22T06:51:20.960Z,88.40
2023-03-22T06:52:20.949Z,88.40
2023-03-22T06:53:20.966Z,88.51
2023-03-22T06:54:20.929Z,88.47
2023-03-22T06:55:20.921Z,88.47
2023-03-22T06:56:20.905Z,88.36
2023-03-22T06:57:20.903Z,88.06
2023-03-22T06:58:20.885Z,87.95
2023-03-22T06:59:20.872Z,87.75
2023-03-22T07:00:20.866Z,87.65
2023-03-22T07:01:20.970Z,87.65
2023-03-22T07:02:20.843Z,87.65
2023-03-22T07:03:20.833Z,87.75
2023-03-22T07:04:20.839Z,87.65
2023-03-22T07:05:20.802Z,87.65
2023-03-22T07:06:20.792Z,87.54
2023-03-22T07:07:20.787Z,87.44
2023-03-22T07:08:20.771Z,87.44
2023-03-22T07:09:20.785Z,87.40
2023-03-22T07:10:20.753Z,87.20
2023-03-22T07:11:20.752Z,86.99
2023-03-22T07:12:20.732Z,86.79
2023-03-22T07:13:20.721Z,86.79
2023-03-22T07:14:20.704Z,86.59
2023-03-22T07:15:20.704Z,86.79
2023-03-22T07:16:20.742Z,86.89
2023-03-22T07:17:20.668Z,86.59
2023-03-22T07:18:20.668Z,86.48
2023-03-22T07:19:20.680Z,86.38
2023-03-22T07:20:20.637Z,86.28
2023-03-22T07:21:20.628Z,86.18
2023-03-22T07:22:20.612Z,86.28
2023-03-22T07:23:20.609Z,86.38
2023-03-22T07:24:20.604Z,86.28
2023-03-22T07:25:20.604Z,86.28
2023-03-22T07:26:20.573Z,86.18
2023-03-22T07:27:20.557Z,86.03
2023-03-22T07:28:20.559Z,86.13
2023-03-22T07:29:20.533Z,86.13
2023-03-22T07:30:20.541Z,85.72
2023-03-22T07:31:20.575Z,85.52
2023-03-22T07:32:20.567Z,85.52
2023-03-22T07:33:20.491Z,85.42
2023-03-22T07:34:20.544Z,85.42
2023-03-22T07:35:20.487Z,85.42
2023-03-22T07:36:20.471Z,85.52
2023-03-22T07:37:20.450Z,85.62
2023-03-22T07:38:20.432Z,85.32
2023-03-22T07:39:20.427Z,85.21
2023-03-22T07:40:20.416Z,85.11
2023-03-22T07:41:20.451Z,85.07
2023-03-22T07:42:20.398Z,85.07
2023-03-22T07:43:20.389Z,84.97
2023-03-22T07:44:20.373Z,84.77
2023-03-22T07:45:20.462Z,84.46
2023-03-22T07:46:20.401Z,84.46
2023-03-22T07:47:34.128Z,84.36
2023-03-22T07:48:22.451Z,84.22
2023-03-22T07:49:20.311Z,84.01
2023-03-22T07:50:20.302Z,83.91
2023-03-22T07:51:20.302Z,83.87
2023-03-22T07:52:20.289Z,83.67
2023-03-22T07:53:20.267Z,83.42
2023-03-22T07:54:32.965Z,82.57
2023-03-22T07:55:20.243Z,81.96
2023-03-22T07:56:20.233Z,81.79
2023-03-22T07:57:20.244Z,81.75
2023-03-22T07:58:20.216Z,81.55
2023-03-22T07:59:20.197Z,81.86
2023-03-22T08:00:20.201Z,81.51
2023-03-22T08:01:20.183Z,81.00
2023-03-22T08:02:20.249Z,80.70
2023-03-22T08:03:20.188Z,80.49
2023-03-22T08:04:20.144Z,80.46
2023-03-22T08:05:20.144Z,80.41
2023-03-22T08:06:20.121Z,79.57
2023-03-22T08:07:20.110Z,78.35
2023-03-22T08:08:20.099Z,77.94
2023-03-22T08:09:20.083Z,78.04
2023-03-22T08:10:20.073Z,77.80
2023-03-22T08:11:20.071Z,77.50
2023-03-22T08:12:20.076Z,77.33
2023-03-22T08:13:20.171Z,77.74
2023-03-22T08:14:27.433Z,77.94
2023-03-22T08:15:22.497Z,77.83
2023-03-22T08:16:20.046Z,77.80
2023-03-22T08:17:19.995Z,77.70
2023-03-22T08:18:19.987Z,77.39
2023-03-22T08:19:19.973Z,77.33
2023-03-22T08:20:19.968Z,77.53
2023-03-22T08:21:19.951Z,78.08
2023-03-22T08:22:19.959Z,78.08
2023-03-22T08:23:26.346Z,78.49
2023-03-22T08:24:19.915Z,78.79
2023-03-22T08:25:19.911Z,78.65
2023-03-22T08:26:19.907Z,78.45
2023-03-22T08:27:19.884Z,77.94
2023-03-22T08:28:19.884Z,78.00
2023-03-22T08:29:19.899Z,77.46
2023-03-22T08:30:19.857Z,77.19
2023-03-22T08:31:19.909Z,77.19
2023-03-22T08:32:19.828Z,77.09
2023-03-22T08:33:19.825Z,77.09
2023-03-22T08:34:19.815Z,76.98
2023-03-22T08:35:19.852Z,77.05
2023-03-22T08:36:19.800Z,76.98
2023-03-22T08:37:19.777Z,77.16
2023-03-22T08:38:19.774Z,77.22
2023-03-22T08:39:19.749Z,76.30
2023-03-22T08:40:19.850Z,76.00
2023-03-22T08:41:19.747Z,76.10
2023-03-22T08:42:19.744Z,75.97
2023-03-22T08:43:19.714Z,75.73
2023-03-22T08:44:19.709Z,75.01
2023-03-22T08:45:19.720Z,74.95
2023-03-22T08:46:19.752Z,74.85
2023-03-22T08:47:19.677Z,75.49
2023-03-22T08:48:19.738Z,75.79
2023-03-22T08:49:19.645Z,75.49
2023-03-22T08:50:19.626Z,75.59
2023-03-22T08:51:19.624Z,75.49
2023-03-22T08:52:19.601Z,75.45
2023-03-22T08:53:19.587Z,75.45
2023-03-22T08:54:19.576Z,74.74
2023-03-22T08:55:19.566Z,75.05
2023-03-22T08:56:19.563Z,75.15
2023-03-22T08:57:19.643Z,75.01
2023-03-22T08:58:19.537Z,74.71
2023-03-22T08:59:19.517Z,74.27
2023-03-22T09:00:19.585Z,73.76
2023-03-22T09:01:19.710Z,74.10
2023-03-22T09:02:19.530Z,74.31
2023-03-22T09:03:19.479Z,74.51
2023-03-22T09:04:19.557Z,74.61
2023-03-22T09:05:19.466Z,74.31
2023-03-22T09:06:19.439Z,73.96
2023-03-22T09:07:19.443Z,73.56
2023-03-22T09:08:20.072Z,73.66
2023-03-22T09:09:19.399Z,73.66
2023-03-22T09:10:19.415Z,73.66
2023-03-22T09:11:19.387Z,73.76
2023-03-22T09:12:19.379Z,73.73
2023-03-22T09:13:25.363Z,72.98
2023-03-22T09:14:19.352Z,72.58
2023-03-22T09:15:19.335Z,72.03
2023-03-22T09:16:19.407Z,71.70
2023-03-22T09:17:21.423Z,70.89
2023-03-22T09:18:19.313Z,71.30
2023-03-22T09:19:19.291Z,70.58
2023-03-22T09:20:19.303Z,71.06
2023-03-22T09:21:19.266Z,70.22
2023-03-22T09:22:19.258Z,70.01
2023-03-22T09:23:19.247Z,69.81
2023-03-22T09:24:19.238Z,69.94
2023-03-22T09:25:19.228Z,70.05
2023-03-22T09:26:19.214Z,70.35
2023-03-22T09:27:19.198Z,70.31
2023-03-22T09:28:19.293Z,69.44
2023-03-22T09:29:19.185Z,68.20
2023-03-22T09:30:19.162Z,67.49
2023-03-22T09:31:20.589Z,67.99
2023-03-22T09:32:19.248Z,67.89
2023-03-22T09:33:19.164Z,68.02
2023-03-22T09:34:19.127Z,67.62
2023-03-22T09:35:19.145Z,68.20
2023-03-22T09:36:19.096Z,67.35
2023-03-22T09:37:19.091Z,66.55
2023-03-22T09:38:19.074Z,66.75
2023-03-22T09:39:19.069Z,66.35
2023-03-22T09:40:19.050Z,66.61
2023-03-22T09:41:19.042Z,66.52
2023-03-22T09:42:19.025Z,66.35
2023-03-22T09:43:19.019Z,64.84
2023-03-22T09:44:19.009Z,64.84
2023-03-22T09:45:19.009Z,65.41
2023-03-22T09:46:19.037Z,66.01
2023-03-22T09:47:18.977Z,66.41
2023-03-22T09:48:19.172Z,66.01
2023-03-22T09:49:18.997Z,66.21
2023-03-22T09:50:18.942Z,66.55
2023-03-22T09:51:18.926Z,66.69
2023-03-22T09:52:18.960Z,65.67
2023-03-22T09:53:18.901Z,65.44
2023-03-22T09:54:18.896Z,65.41
2023-03-22T09:55:18.891Z,63.87
2023-03-22T09:56:18.865Z,63.80
2023-03-22T09:57:18.866Z,64.84
2023-03-22T09:58:18.882Z,64.44
2023-03-22T09:59:18.837Z,65.24
2023-03-22T10:00:18.990Z,64.94
2023-03-22T10:01:21.012Z,64.91
2023-03-22T10:02:18.971Z,64.61
2023-03-22T10:03:18.792Z,63.44
2023-03-22T10:04:18.807Z,62.84
2023-03-22T10:05:18.803Z,62.96
2023-03-22T10:06:18.751Z,63.26
2023-03-22T10:07:18.746Z,62.40
2023-03-22T10:08:18.731Z,61.71
2023-03-22T10:09:18.789Z,59.11
2023-03-22T10:10:18.733Z,57.83
2023-03-22T10:11:18.699Z,56.82
2023-03-22T10:12:18.684Z,57.15
2023-03-22T10:13:18.678Z,57.64
2023-03-22T10:14:18.663Z,58.59
2023-03-22T10:15:18.657Z,59.68
2023-03-22T10:16:18.694Z,60.82
2023-03-22T10:17:18.630Z,60.79
2023-03-22T10:18:18.621Z,60.66
2023-03-22T10:19:18.610Z,60.00
2023-03-22T10:20:18.608Z,58.56
2023-03-22T10:21:18.629Z,58.59
2023-03-22T10:22:18.578Z,58.89
2023-03-22T10:23:18.569Z,58.89
2023-03-22T10:24:18.556Z,59.73
2023-03-22T10:25:18.542Z,60.26
2023-03-22T10:26:18.534Z,60.79
2023-03-22T10:27:18.521Z,60.89
2023-03-22T10:28:18.518Z,61.19
2023-03-22T10:29:18.508Z,60.79
2023-03-22T10:30:18.506Z,60.89
2023-03-22T10:31:18.502Z,61.19
2023-03-22T10:32:18.464Z,61.16
2023-03-22T10:33:18.450Z,60.26
2023-03-22T10:34:18.445Z,60.33
2023-03-22T10:35:18.446Z,59.60
2023-03-22T10:36:18.417Z,59.17
2023-03-22T10:37:18.440Z,58.80
2023-03-22T10:38:18.396Z,59.10
2023-03-22T10:39:18.392Z,59.50
2023-03-22T10:40:18.453Z,58.56
2023-03-22T10:41:18.362Z,58.64
2023-03-22T10:42:18.348Z,57.73
2023-03-22T10:43:18.340Z,57.73
2023-03-22T10:44:18.332Z,57.31
2023-03-22T10:45:18.321Z,57.00
2023-03-22T10:46:18.390Z,57.94
2023-03-22T10:47:18.301Z,58.36
2023-03-22T10:48:19.493Z,58.94
2023-03-22T10:49:18.268Z,57.51
2023-03-22T10:50:18.435Z,57.61
2023-03-22T10:51:18.250Z,57.68
2023-03-22T10:52:18.237Z,57.31
2023-03-22T10:53:18.269Z,57.84
2023-03-22T10:54:18.225Z,58.67
2023-03-22T10:55:18.206Z,58.89
2023-03-22T10:56:18.188Z,58.49
2023-03-22T10:57:18.181Z,58.36
2023-03-22T10:58:18.171Z,57.76
2023-03-22T10:59:18.156Z,57.69
2023-03-22T11:00:18.313Z,58.62
2023-03-22T11:01:18.248Z,58.82
2023-03-22T11:02:18.349Z,59.42
2023-03-22T11:03:18.112Z,59.22
2023-03-22T11:04:18.107Z,59.20
2023-03-22T11:05:18.094Z,59.10
2023-03-22T11:06:18.078Z,58.59
2023-03-22T11:07:18.066Z,59.02
2023-03-22T11:08:18.055Z,59.40
2023-03-22T11:09:18.072Z,58.77
2023-03-22T11:10:18.164Z,58.23
2023-03-22T11:11:18.027Z,57.89
2023-03-22T11:12:18.014Z,57.79
2023-03-22T11:13:18.017Z,57.72
2023-03-22T11:14:17.993Z,58.25
2023-03-22T11:15:17.984Z,58.32
2023-03-22T11:16:18.082Z,57.31
2023-03-22T11:17:17.957Z,57.92
2023-03-22T11:18:17.968Z,57.76
2023-03-22T11:19:17.936Z,56.28
2023-03-22T11:20:18.038Z,55.87
2023-03-22T11:21:17.912Z,55.29
2023-03-22T11:22:17.899Z,54.72
2023-03-22T11:23:17.941Z,55.24
2023-03-22T11:24:17.882Z,54.85
2023-03-22T11:25:17.885Z,55.10
2023-03-22T11:26:17.848Z,56.06
2023-03-22T11:27:17.845Z,57.01
2023-03-22T11:28:17.848Z,57.95
2023-03-22T11:29:17.816Z,58.22
2023-03-22T11:30:17.815Z,58.32
2023-03-22T11:31:17.872Z,58.34
2023-03-22T11:32:17.891Z,58.55
2023-03-22T11:33:17.887Z,58.34
2023-03-22T11:34:17.774Z,58.14
2023-03-22T11:35:17.773Z,58.17
2023-03-22T11:36:17.736Z,58.88
2023-03-22T11:37:18.303Z,58.88
2023-03-22T11:38:18.966Z,58.88
2023-03-22T11:39:17.709Z,58.45
2023-03-22T11:40:17.704Z,58.02
2023-03-22T11:41:17.713Z,57.92
2023-03-22T11:42:17.684Z,57.34
2023-03-22T11:43:17.659Z,56.94
2023-03-22T11:44:17.652Z,57.04
2023-03-22T11:45:17.637Z,56.64
2023-03-22T11:46:17.674Z,55.81
2023-03-22T11:47:17.614Z,55.27
2023-03-22T11:48:17.700Z,54.65
2023-03-22T11:49:17.616Z,54.77
2023-03-22T11:50:17.579Z,55.07
2023-03-22T11:51:17.579Z,55.18
2023-03-22T11:52:17.564Z,54.75
2023-03-22T11:53:17.551Z,54.42
2023-03-22T11:54:17.539Z,54.29
2023-03-22T11:55:17.530Z,54.27
2023-03-22T11:56:17.521Z,53.57
2023-03-22T11:57:17.534Z,53.69
2023-03-22T11:58:17.497Z,55.31
2023-03-22T11:59:17.500Z,56.01
2023-03-22T12:00:17.474Z,55.38
2023-03-22T12:01:17.459Z,54.82
2023-03-22T12:02:17.482Z,54.27
2023-03-22T12:03:17.561Z,52.84
2023-03-22T12:04:17.493Z,52.29
2023-03-22T12:05:17.447Z,51.44
2023-03-22T12:06:17.460Z,50.31
2023-03-22T12:07:17.391Z,49.49
2023-03-22T12:08:17.379Z,49.01
2023-03-22T12:09:17.372Z,49.01
2023-03-22T12:10:17.353Z,48.71
2023-03-22T12:11:17.346Z,49.43
2023-03-22T12:12:17.342Z,49.91
2023-03-22T12:13:17.351Z,49.67
2023-03-22T12:14:17.328Z,49.04
2023-03-22T12:15:17.305Z,49.14
2023-03-22T12:16:17.329Z,49.26
2023-03-22T12:17:17.275Z,49.67
2023-03-22T12:18:17.427Z,49.79
2023-03-22T12:19:17.256Z,49.81
2023-03-22T12:20:17.252Z,49.69
2023-03-22T12:21:17.235Z,49.59
2023-03-22T12:22:17.224Z,50.11
2023-03-22T12:23:17.230Z,50.01
2023-03-22T12:24:17.208Z,50.21
2023-03-22T12:25:17.670Z,50.21
2023-03-22T12:26:17.178Z,50.39
2023-03-22T12:27:17.167Z,49.74
2023-03-22T12:28:17.153Z,48.54
2023-03-22T12:29:17.181Z,48.94
2023-03-22T12:30:17.135Z,48.74
2023-03-22T12:31:17.190Z,49.41
2023-03-22T12:32:17.110Z,50.46
2023-03-22T12:33:17.285Z,50.66
2023-03-22T12:34:17.091Z,50.76
2023-03-22T12:35:18.225Z,51.48
2023-03-22T12:36:17.150Z,51.16
2023-03-22T12:37:17.055Z,51.29
2023-03-22T12:38:17.051Z,51.66
2023-03-22T12:39:17.032Z,50.93
2023-03-22T12:40:17.043Z,51.04
2023-03-22T12:41:17.017Z,50.96
2023-03-22T12:42:16.999Z,51.09
2023-03-22T12:43:16.993Z,51.59
2023-03-22T12:44:16.979Z,51.81
2023-03-22T12:45:16.999Z,51.34
2023-03-22T12:46:17.022Z,50.61
2023-03-22T12:47:17.116Z,50.41
2023-03-22T12:48:17.120Z,50.41
2023-03-22T12:49:16.931Z,50.69
2023-03-22T12:50:16.923Z,50.51
2023-03-22T12:51:16.906Z,51.34
2023-03-22T12:52:16.888Z,50.72